Khanewal Weather



Khanewal's Current Weather

Temprature 28.6o clear sky

clear sky

Rain: 0 %

Min Temprature28.6o
Max Temprature28.6o
Humidity49
Wind Speed4.62 m/h
Sun Rise05:13:55
Sun Set19:04:33
Current Time: 24-May-2022 08:03:30
Lat/Lon: 30.3, 71.9333




Khanewal's Geo Location



Khanewal's Weather Forecast

Time Overall Temp Min Temp Max Temp Humidity Wind Speed Rain
24-May-2022 (Tue)
11:00:00 clear sky 30.670 30.670 34.820 42 4.59 m/h 0 %
14:00:00 clear sky 35.350 35.350 38.720 27 4.07 m/h 0 %
17:00:00 clear sky 38.920 38.920 38.920 14 3.5 m/h 0 %
20:00:00 clear sky 33.620 33.620 33.620 21 4.28 m/h 0 %
23:00:00 clear sky 30.710 30.710 30.710 26 4.17 m/h 0 %
25-May-2022 (Wed)
02:00:00 clear sky 28.750 28.750 28.750 30 3.16 m/h 0 %
05:00:00 clear sky 27.630 27.630 27.630 32 2.96 m/h 0 %
08:00:00 clear sky 33.150 33.150 33.150 23 3.4 m/h 0 %
11:00:00 clear sky 38.480 38.480 38.480 15 2.3 m/h 0 %
14:00:00 clear sky 42.030 42.030 42.030 11 1.22 m/h 0 %
17:00:00 clear sky 42.060 42.060 42.060 10 0.47 m/h 0 %
20:00:00 clear sky 36.890 36.890 36.890 13 3.04 m/h 0 %
23:00:00 clear sky 34.510 34.510 34.510 16 3.5 m/h 0 %
26-May-2022 (Thu)
02:00:00 clear sky 31.610 31.610 31.610 22 3.74 m/h 0 %
05:00:00 clear sky 30.570 30.570 30.570 24 4.56 m/h 0 %
08:00:00 clear sky 37.070 37.070 37.070 15 6.02 m/h 0 %
11:00:00 clear sky 42.900 42.900 42.900 12 3.67 m/h 0 %
14:00:00 clear sky 46.300 46.300 46.300 8 3.44 m/h 0 %
17:00:00 clear sky 46.300 46.300 46.300 6 3.54 m/h 0 %
20:00:00 clear sky 39.800 39.800 39.800 8 0.86 m/h 0 %
23:00:00 clear sky 37.350 37.350 37.350 10 1.49 m/h 0 %
27-May-2022 (Fri)
02:00:00 clear sky 34.960 34.960 34.960 15 2.74 m/h 0 %
05:00:00 clear sky 32.620 32.620 32.620 39 4.55 m/h 0 %
08:00:00 clear sky 35.880 35.880 35.880 35 5.93 m/h 0 %
11:00:00 clear sky 43.540 43.540 43.540 17 4.21 m/h 0 %
14:00:00 clear sky 48.270 48.270 48.270 6 3.67 m/h 0 %
17:00:00 clear sky 48.110 48.110 48.110 4 1.66 m/h 0 %
20:00:00 clear sky 41.370 41.370 41.370 7 3.93 m/h 0 %
23:00:00 clear sky 37.630 37.630 37.630 7 2.72 m/h 0 %
28-May-2022 (Sat)
02:00:00 clear sky 34.360 34.360 34.360 5 4.44 m/h 0 %
05:00:00 clear sky 31.630 31.630 31.630 10 4.83 m/h 0 %
08:00:00 clear sky 39.180 39.180 39.180 8 6.86 m/h 0 %
11:00:00 clear sky 45.070 45.070 45.070 7 5.37 m/h 0 %
14:00:00 clear sky 47.620 47.620 47.620 6 4.66 m/h 0 %
17:00:00 clear sky 47.270 47.270 47.270 4 4.68 m/h 0 %
20:00:00 clear sky 39.850 39.850 39.850 4 3.35 m/h 0 %
23:00:00 clear sky 36.220 36.220 36.220 8 5.41 m/h 0 %
29-May-2022 (Sun)
02:00:00 clear sky 33.800 33.800 33.800 17 4.96 m/h 0 %
05:00:00 clear sky 30.970 30.970 30.970 29 4.18 m/h 0 %
08:00:00 clear sky 36.290 36.290 36.290 19 6.38 m/h 0 %

Famous Cities (61)